createdAt,value
2018-12-30T00:00:06.993Z,101796.95
2018-12-30T00:02:55.042Z,101807.09
2018-12-30T00:05:44.854Z,101813.44
2018-12-30T00:11:42.105Z,101825.69
2018-12-30T00:17:37.271Z,101818.50
2018-12-30T00:20:25.425Z,101837.95
2018-12-30T00:23:13.510Z,101846.41
2018-12-30T00:26:01.416Z,101855.28
2018-12-30T00:28:49.495Z,101861.16
2018-12-30T00:31:18.473Z,101872.56
2018-12-30T00:34:06.505Z,101881.41
2018-12-30T00:36:54.616Z,101916.05
2018-12-30T00:42:49.769Z,101922.31
2018-12-30T00:45:37.845Z,101918.92
2018-12-30T00:48:25.913Z,101932.41
2018-12-30T00:51:17.172Z,101937.02
2018-12-30T00:54:03.777Z,101948.42
2018-12-30T00:56:52.114Z,101965.27
2018-12-30T00:59:40.202Z,101984.66
2018-12-30T01:02:28.098Z,101984.22
2018-12-30T01:05:16.110Z,101986.25
2018-12-30T01:08:04.182Z,101979.05
2018-12-30T01:10:52.299Z,101978.16
2018-12-30T01:13:42.098Z,101997.50
2018-12-30T01:16:30.179Z,102005.08
2018-12-30T01:22:25.341Z,102012.16
2018-12-30T01:25:13.430Z,101998.63
2018-12-30T01:28:01.326Z,102028.59
2018-12-30T01:30:49.477Z,102037.84
2018-12-30T01:33:37.905Z,102048.34
2018-12-30T01:36:27.702Z,102056.36
2018-12-30T01:39:15.733Z,102059.67
2018-12-30T01:42:05.851Z,102061.80
2018-12-30T01:47:47.693Z,102084.14
2018-12-30T01:50:35.731Z,102098.02
2018-12-30T01:53:25.949Z,102106.45
2018-12-30T01:56:13.985Z,102116.12
2018-12-30T01:59:01.931Z,102121.19
2018-12-30T02:04:57.105Z,102155.29
2018-12-30T02:07:45.143Z,102154.85
2018-12-30T02:10:33.227Z,102163.28
2018-12-30T02:16:28.831Z,102167.86
2018-12-30T02:19:16.920Z,102179.22
2018-12-30T02:22:05.009Z,102176.17
2018-12-30T02:28:00.057Z,102183.75
2018-12-30T02:30:48.107Z,102188.97
2018-12-30T02:33:36.487Z,102194.92
2018-12-30T02:36:26.244Z,102202.08
2018-12-30T02:39:14.179Z,102202.58
2018-12-30T02:42:02.437Z,102203.97
2018-12-30T02:44:50.484Z,102184.60
2018-12-30T02:47:40.294Z,102194.32
2018-12-30T02:50:28.267Z,102201.58
2018-12-30T02:53:18.086Z,102212.66
2018-12-30T02:56:06.121Z,102219.05
2018-12-30T02:58:55.912Z,102220.35
2018-12-30T03:04:51.089Z,102211.12
2018-12-30T03:07:39.121Z,102217.55
2018-12-30T03:13:20.737Z,102233.64
2018-12-30T03:16:08.680Z,102225.23
2018-12-30T03:18:56.717Z,102221.35
2018-12-30T03:24:38.540Z,102225.55
2018-12-30T03:30:20.483Z,102236.20
2018-12-30T03:33:08.564Z,102242.52
2018-12-30T03:35:56.457Z,102242.95
2018-12-30T03:38:44.529Z,102249.28
2018-12-30T03:41:32.561Z,102256.52
2018-12-30T03:44:20.930Z,102259.04
2018-12-30T03:47:09.009Z,102262.46
2018-12-30T03:52:45.155Z,102282.28
2018-12-30T03:55:33.195Z,102277.63
2018-12-30T03:58:21.232Z,102272.55
2018-12-30T04:01:09.266Z,102284.78
2018-12-30T04:03:57.349Z,102283.91
2018-12-30T04:06:45.392Z,102291.11
2018-12-30T04:09:33.402Z,102295.33
2018-12-30T04:12:21.847Z,102307.59
2018-12-30T04:15:09.881Z,102300.17
2018-12-30T04:17:57.956Z,102304.02
2018-12-30T04:20:45.989Z,102304.45
2018-12-30T04:23:34.071Z,102309.91
2018-12-30T04:26:22.142Z,102332.47
2018-12-30T04:29:10.107Z,102324.87
2018-12-30T04:31:58.088Z,102326.16
2018-12-30T04:34:46.034Z,102333.79
2018-12-30T04:37:34.361Z,102338.42
2018-12-30T04:40:03.677Z,102349.42
2018-12-30T04:42:51.574Z,102352.37
2018-12-30T04:45:39.657Z,102351.98
2018-12-30T04:48:27.706Z,102357.08
2018-12-30T04:51:15.798Z,102362.63
2018-12-30T04:54:03.730Z,102380.41
2018-12-30T04:56:52.162Z,102371.92
2018-12-30T05:02:47.344Z,102380.81
2018-12-30T05:05:35.405Z,102377.05
2018-12-30T05:08:04.390Z,102381.23
2018-12-30T05:10:52.331Z,102378.78
2018-12-30T05:16:47.793Z,102373.66
2018-12-30T05:19:35.737Z,102408.77
2018-12-30T05:25:30.977Z,102406.29
2018-12-30T05:31:26.093Z,102403.35
2018-12-30T05:34:14.148Z,102418.55
2018-12-30T05:37:02.240Z,102429.57
2018-12-30T05:39:50.130Z,102422.77
2018-12-30T05:42:38.461Z,102431.25
2018-12-30T05:45:07.945Z,102441.05
2018-12-30T05:47:55.903Z,102440.20
2018-12-30T05:50:43.941Z,102441.52
2018-12-30T05:53:32.021Z,102437.73
2018-12-30T05:56:20.370Z,102452.99
2018-12-30T05:59:08.441Z,102457.25
2018-12-30T06:01:56.477Z,102455.53
2018-12-30T06:04:44.838Z,102463.98
2018-12-30T06:07:33.084Z,102463.16
2018-12-30T06:10:21.166Z,102465.34
2018-12-30T06:13:09.251Z,102478.05
2018-12-30T06:15:57.328Z,102484.36
2018-12-30T06:18:45.271Z,102494.95
2018-12-30T06:21:33.349Z,102495.77
2018-12-30T06:24:21.597Z,102492.31
2018-12-30T06:27:09.644Z,102487.26
2018-12-30T06:29:57.739Z,102503.31
2018-12-30T06:32:45.769Z,102512.19
2018-12-30T06:35:33.845Z,102514.75
2018-12-30T06:38:21.914Z,102517.77
2018-12-30T06:41:09.998Z,102512.27
2018-12-30T06:47:05.187Z,102520.73
2018-12-30T06:49:53.222Z,102522.94
2018-12-30T06:52:41.325Z,102528.84
2018-12-30T06:55:29.390Z,102537.31
2018-12-30T06:58:17.572Z,102529.36
2018-12-30T07:01:05.647Z,102527.69
2018-12-30T07:03:53.681Z,102530.69
2018-12-30T07:06:41.777Z,102519.70
2018-12-30T07:09:29.869Z,102528.94
2018-12-30T07:12:17.904Z,102541.65
2018-12-30T07:15:05.981Z,102542.61
2018-12-30T07:17:53.880Z,102525.59
2018-12-30T07:20:41.824Z,102539.16
2018-12-30T07:23:29.862Z,102539.22
2018-12-30T07:26:17.941Z,102540.78
2018-12-30T07:29:06.025Z,102539.02
2018-12-30T07:31:54.061Z,102541.45
2018-12-30T07:34:42.147Z,102539.81
2018-12-30T07:37:30.482Z,102543.57
2018-12-30T07:40:18.565Z,102551.16
2018-12-30T07:43:06.653Z,102548.14
2018-12-30T07:45:54.694Z,102548.58
2018-12-30T07:48:43.100Z,102552.78
2018-12-30T07:51:31.142Z,102560.00
2018-12-30T07:54:19.225Z,102547.27
2018-12-30T07:57:07.311Z,102559.03
2018-12-30T08:03:02.501Z,102566.73
2018-12-30T08:05:50.585Z,102562.03
2018-12-30T08:08:38.835Z,102564.59
2018-12-30T08:11:27.279Z,102570.94
2018-12-30T08:14:15.187Z,102566.63
2018-12-30T08:17:03.557Z,102562.77
2018-12-30T08:19:32.696Z,102559.73
2018-12-30T08:22:20.777Z,102566.55
2018-12-30T08:25:08.715Z,102573.63
2018-12-30T08:27:56.851Z,102571.92
2018-12-30T08:30:44.976Z,102583.63
2018-12-30T08:33:33.055Z,102586.22
2018-12-30T08:36:21.095Z,102590.80
2018-12-30T08:39:09.391Z,102591.60
2018-12-30T08:45:04.555Z,102579.83
2018-12-30T08:47:52.644Z,102596.70
2018-12-30T08:50:40.538Z,102582.75
2018-12-30T08:53:29.502Z,102592.80
2018-12-30T08:56:18.102Z,102601.84
2018-12-30T08:59:06.226Z,102609.87
2018-12-30T09:01:54.088Z,102595.53
2018-12-30T09:04:23.174Z,102607.02
2018-12-30T09:07:11.217Z,102616.80
2018-12-30T09:09:59.296Z,102624.45
2018-12-30T09:12:47.240Z,102630.84
2018-12-30T09:15:35.265Z,102622.41
2018-12-30T09:18:23.343Z,102629.70
2018-12-30T09:21:11.415Z,102627.28
2018-12-30T09:23:59.486Z,102628.59
2018-12-30T09:26:47.565Z,102629.08
2018-12-30T09:29:35.654Z,102617.59
2018-12-30T09:32:23.696Z,102636.80
2018-12-30T09:35:11.966Z,102640.71
2018-12-30T09:37:40.917Z,102636.03
2018-12-30T09:40:29.064Z,102638.95
2018-12-30T09:43:17.113Z,102628.16
2018-12-30T09:46:05.203Z,102635.73
2018-12-30T09:48:53.277Z,102643.83
2018-12-30T09:51:41.339Z,102650.22
2018-12-30T09:57:22.982Z,102643.14
2018-12-30T10:00:11.337Z,102639.45
2018-12-30T10:02:59.441Z,102644.04
2018-12-30T10:05:47.442Z,102651.63
2018-12-30T10:08:35.537Z,102647.03
2018-12-30T10:11:23.636Z,102659.31
2018-12-30T10:14:11.710Z,102664.05
2018-12-30T10:16:59.652Z,102672.45
2018-12-30T10:19:28.639Z,102673.45
2018-12-30T10:22:16.711Z,102672.70
2018-12-30T10:25:04.668Z,102675.64
2018-12-30T10:27:52.750Z,102680.27
2018-12-30T10:30:40.795Z,102681.59
2018-12-30T10:33:29.175Z,102682.42
2018-12-30T10:36:17.152Z,102683.06
2018-12-30T10:39:05.198Z,102677.44
2018-12-30T10:44:47.615Z,102663.13
2018-12-30T10:47:35.772Z,102691.12
2018-12-30T10:53:19.210Z,102709.31
2018-12-30T10:56:07.303Z,102716.90
2018-12-30T10:58:55.378Z,102696.59
2018-12-30T11:01:43.436Z,102708.18
2018-12-30T11:04:31.514Z,102717.44
2018-12-30T11:07:19.454Z,102702.70
2018-12-30T11:10:07.509Z,102716.26
2018-12-30T11:12:55.594Z,102713.30
2018-12-30T11:15:43.629Z,102705.30
2018-12-30T11:18:31.973Z,102710.33
2018-12-30T11:21:19.971Z,102696.78
2018-12-30T11:23:48.958Z,102709.03
2018-12-30T11:26:36.989Z,102705.68
2018-12-30T11:29:25.153Z,102706.89
2018-12-30T11:35:06.922Z,102706.23
2018-12-30T11:37:55.000Z,102713.44
2018-12-30T11:40:43.089Z,102719.42
2018-12-30T11:43:31.169Z,102711.41
2018-12-30T11:46:19.295Z,102710.17
2018-12-30T11:49:07.390Z,102717.44
2018-12-30T11:57:57.105Z,102713.27
2018-12-30T12:00:45.192Z,102720.48
2018-12-30T12:06:40.373Z,102715.41
2018-12-30T12:12:35.821Z,102709.02
2018-12-30T12:15:44.284Z,102715.74
2018-12-30T12:18:32.361Z,102703.84
2018-12-30T12:21:20.405Z,102702.66
2018-12-30T12:24:08.487Z,102717.91
2018-12-30T12:30:03.676Z,102711.09
2018-12-30T12:32:52.161Z,102715.41
2018-12-30T12:35:40.199Z,102706.16
2018-12-30T12:38:28.282Z,102698.38
2018-12-30T12:41:16.177Z,102692.90
2018-12-30T12:44:04.267Z,102683.98
2018-12-30T12:49:59.460Z,102698.93
2018-12-30T12:52:47.501Z,102689.52
2018-12-30T12:58:29.088Z,102693.35
2018-12-30T13:01:17.102Z,102708.58
2018-12-30T13:07:12.312Z,102718.83
2018-12-30T13:13:07.490Z,102745.90
2018-12-30T13:16:03.166Z,102738.66
2018-12-30T13:18:45.329Z,102735.58
2018-12-30T13:21:33.385Z,102722.44
2018-12-30T13:24:21.745Z,102696.27
2018-12-30T13:27:09.788Z,102683.89
2018-12-30T13:29:57.736Z,102699.03
2018-12-30T13:32:45.826Z,102701.12
2018-12-30T13:35:33.901Z,102688.30
2018-12-30T13:38:28.248Z,102692.89
2018-12-30T13:41:11.792Z,102689.44
2018-12-30T13:43:59.794Z,102688.56
2018-12-30T13:46:47.874Z,102684.70
2018-12-30T13:49:35.958Z,102697.80
2018-12-30T13:52:24.162Z,102679.94
2018-12-30T13:55:12.321Z,102690.50
2018-12-30T13:58:00.354Z,102704.40
2018-12-30T14:00:48.370Z,102706.06
2018-12-30T14:03:36.309Z,102705.55
2018-12-30T14:06:24.388Z,102717.85
2018-12-30T14:09:12.371Z,102722.47
2018-12-30T14:12:00.462Z,102723.22
2018-12-30T14:17:55.649Z,102755.31
2018-12-30T14:20:43.681Z,102732.86
2018-12-30T14:23:31.764Z,102737.89
2018-12-30T14:26:19.690Z,102741.72
2018-12-30T14:29:07.786Z,102746.25
2018-12-30T14:31:55.878Z,102750.44
2018-12-30T14:37:51.074Z,102759.98
2018-12-30T14:40:39.122Z,102760.04
2018-12-30T14:43:27.201Z,102772.78
2018-12-30T14:49:09.282Z,102785.30
2018-12-30T14:51:57.222Z,102793.80
2018-12-30T14:54:45.257Z,102784.86
2018-12-30T14:57:33.334Z,102781.39
2018-12-30T15:00:21.410Z,102784.75
2018-12-30T15:03:09.497Z,102774.93
2018-12-30T15:05:57.550Z,102776.47
2018-12-30T15:08:45.543Z,102772.66
2018-12-30T15:14:40.705Z,102775.14
2018-12-30T15:17:28.757Z,102769.52
2018-12-30T15:20:16.837Z,102761.44
2018-12-30T15:23:05.065Z,102757.48
2018-12-30T15:25:52.993Z,102769.72
2018-12-30T15:28:41.365Z,102774.34
2018-12-30T15:31:29.307Z,102783.55
2018-12-30T15:34:17.284Z,102785.95
2018-12-30T15:37:05.367Z,102783.80
2018-12-30T15:39:34.295Z,102778.22
2018-12-30T15:42:22.369Z,102790.42
2018-12-30T15:45:10.446Z,102792.45
2018-12-30T15:47:58.446Z,102808.83
2018-12-30T15:50:46.557Z,102810.05
2018-12-30T15:53:34.594Z,102818.04
2018-12-30T15:56:22.682Z,102811.57
2018-12-30T16:02:17.830Z,102844.82
2018-12-30T16:05:05.910Z,102850.64
2018-12-30T16:07:53.992Z,102849.30
2018-12-30T16:13:49.169Z,102853.37
2018-12-30T16:16:37.060Z,102852.81
2018-12-30T16:19:25.419Z,102859.52
2018-12-30T16:22:13.513Z,102862.47
2018-12-30T16:25:01.525Z,102855.61
2018-12-30T16:27:49.597Z,102855.98
2018-12-30T16:30:37.628Z,102862.80
2018-12-30T16:36:19.830Z,102859.45
2018-12-30T16:39:08.234Z,102863.33
2018-12-30T16:41:57.934Z,102866.30
2018-12-30T16:44:46.394Z,102859.14
2018-12-30T16:47:41.587Z,102854.16
2018-12-30T16:50:05.870Z,102858.84
2018-12-30T16:56:01.047Z,102871.58
2018-12-30T17:01:56.303Z,102886.78
2018-12-30T17:04:44.391Z,102878.33
2018-12-30T17:07:32.433Z,102886.92
2018-12-30T17:10:20.532Z,102893.22
2018-12-30T17:13:08.568Z,102890.35
2018-12-30T17:15:56.740Z,102881.04
2018-12-30T17:18:44.640Z,102889.91
2018-12-30T17:21:32.732Z,102886.96
2018-12-30T17:24:20.766Z,102890.73
2018-12-30T17:27:08.847Z,102888.34
2018-12-30T17:33:03.879Z,102884.61
2018-12-30T17:35:51.909Z,102889.75
2018-12-30T17:38:39.995Z,102884.72
2018-12-30T17:41:28.091Z,102893.23
2018-12-30T17:44:17.442Z,102890.33
2018-12-30T17:47:05.945Z,102897.59
2018-12-30T17:49:53.982Z,102905.20
2018-12-30T17:52:42.129Z,102913.72
2018-12-30T17:55:30.159Z,102911.12
2018-12-30T17:58:18.103Z,102901.05
2018-12-30T18:01:06.201Z,102905.37
2018-12-30T18:03:54.274Z,102911.70
2018-12-30T18:06:42.360Z,102918.01
2018-12-30T18:09:30.506Z,102918.76
2018-12-30T18:12:18.537Z,102917.42
2018-12-30T18:15:06.618Z,102915.98
2018-12-30T18:17:54.667Z,102914.94
2018-12-30T18:23:36.191Z,102924.78
2018-12-30T18:26:24.220Z,102931.86
2018-12-30T18:29:12.281Z,102931.78
2018-12-30T18:32:00.365Z,102927.50
2018-12-30T18:34:48.402Z,102929.21
2018-12-30T18:37:36.474Z,102925.00
2018-12-30T18:40:45.327Z,102925.82
2018-12-30T18:43:33.342Z,102912.67
2018-12-30T18:46:21.726Z,102908.72
2018-12-30T18:49:10.098Z,102910.70
2018-12-30T18:51:58.174Z,102923.72
2018-12-30T18:54:46.217Z,102924.09
2018-12-30T18:57:34.317Z,102937.58
2018-12-30T19:00:22.373Z,102938.39
2018-12-30T19:03:10.442Z,102934.97
2018-12-30T19:05:58.490Z,102946.28
2018-12-30T19:08:46.575Z,102937.67
2018-12-30T19:11:15.515Z,102928.62
2018-12-30T19:14:03.603Z,102923.84
2018-12-30T19:19:59.146Z,102931.97
2018-12-30T19:26:00.895Z,102920.98
2018-12-30T19:28:44.055Z,102927.99
2018-12-30T19:31:32.002Z,102933.42
2018-12-30T19:34:19.899Z,102941.38
2018-12-30T19:37:07.998Z,102943.00
2018-12-30T19:39:56.022Z,102945.89
2018-12-30T19:42:44.017Z,102928.55
2018-12-30T19:48:39.269Z,102943.32
2018-12-30T19:54:15.341Z,102940.75
2018-12-30T19:57:03.387Z,102950.05
2018-12-30T19:59:51.441Z,102943.23
2018-12-30T20:02:39.478Z,102954.21
2018-12-30T20:05:08.572Z,102960.04
2018-12-30T20:07:56.610Z,102970.06
2018-12-30T20:10:44.724Z,102973.00
2018-12-30T20:13:33.175Z,102965.33
2018-12-30T20:16:21.209Z,102964.88
2018-12-30T20:19:09.294Z,102963.97
2018-12-30T20:21:57.330Z,102972.70
2018-12-30T20:24:45.442Z,102977.21
2018-12-30T20:30:40.667Z,102972.06
2018-12-30T20:33:28.721Z,102960.28
2018-12-30T20:36:16.791Z,102953.64
2018-12-30T20:39:04.881Z,102949.48
2018-12-30T20:41:52.947Z,102958.14
2018-12-30T20:44:40.991Z,102952.31
2018-12-30T20:47:28.922Z,102951.87
2018-12-30T20:50:16.828Z,102943.47
2018-12-30T20:53:04.926Z,102938.05
2018-12-30T20:59:00.097Z,102952.98
2018-12-30T21:04:55.401Z,102946.66
2018-12-30T21:07:43.473Z,102953.93
2018-12-30T21:10:31.562Z,102951.49
2018-12-30T21:19:15.365Z,102933.72
2018-12-30T21:22:03.446Z,102932.98
2018-12-30T21:24:51.420Z,102938.94
2018-12-30T21:27:39.518Z,102935.11
2018-12-30T21:33:23.881Z,102946.13
2018-12-30T21:36:11.965Z,102951.19
2018-12-30T21:38:59.984Z,102952.50
2018-12-30T21:41:48.065Z,102946.66
2018-12-30T21:47:43.260Z,102937.97
2018-12-30T21:50:31.378Z,102930.09
2018-12-30T21:53:19.577Z,102932.78
2018-12-30T21:56:07.695Z,102937.56
2018-12-30T22:02:02.873Z,102932.39
2018-12-30T22:04:50.909Z,102927.86
2018-12-30T22:07:38.990Z,102935.53
2018-12-30T22:13:34.719Z,102933.89
2018-12-30T22:16:22.798Z,102936.84
2018-12-30T22:19:10.915Z,102938.92
2018-12-30T22:21:58.990Z,102936.72
2018-12-30T22:24:46.884Z,102932.51
2018-12-30T22:27:34.962Z,102928.80
2018-12-30T22:30:23.037Z,102931.36
2018-12-30T22:33:11.076Z,102930.95
2018-12-30T22:35:59.213Z,102931.40
2018-12-30T22:38:47.133Z,102941.08
2018-12-30T22:41:35.221Z,102938.84
2018-12-30T22:47:30.392Z,102945.46
2018-12-30T22:53:25.561Z,102948.20
2018-12-30T22:56:13.601Z,102939.61
2018-12-30T22:58:42.970Z,102942.55
2018-12-30T23:01:30.946Z,102934.70
2018-12-30T23:04:19.025Z,102936.94
2018-12-30T23:07:07.109Z,102936.67
2018-12-30T23:09:55.196Z,102938.02
2018-12-30T23:15:50.374Z,102939.56
2018-12-30T23:18:38.462Z,102939.67
2018-12-30T23:21:26.506Z,102945.75
2018-12-30T23:24:14.587Z,102942.10
2018-12-30T23:26:43.734Z,102951.94
2018-12-30T23:29:12.744Z,102952.05
2018-12-30T23:32:00.801Z,102949.67
2018-12-30T23:34:48.844Z,102948.44
2018-12-30T23:40:30.793Z,102956.19
2018-12-30T23:43:18.889Z,102952.87
2018-12-30T23:46:06.802Z,102965.98
2018-12-30T23:48:54.886Z,102956.63
2018-12-30T23:51:42.932Z,102957.11
2018-12-30T23:54:31.013Z,102949.06
2018-12-30T23:57:19.099Z,102952.94
